Flight Track Log - Related Links

Times and Time Zones

All times are in EDT time to prevent confusion due to time zone crossing. See the UAL3826 flight status page for this flight to view local times or setup timezone preferences in your user account.

Time Position Orientation Groundspeed Altitude Reporting Facility
EDT Latitude Longitude Course Direction KTS MPH feet Rate Location/Type
Thu 05:50:58 AM 42.9500 -71.4167 281° West 158 182 900  Level KA90
Thu 05:51:40 AM 42.9833 -71.4000 20° North 186 214 2,300 2,077 Climbing KA90
Thu 05:52:16 AM 43.0122 -71.3781 29° Northeast 203 234 3,600 2,553 Climbing Boston Center
Thu 05:53:00 AM 42.7720 -71.6412 280° West  Level Estimated
Thu 05:53:14 AM 43.0503 -71.4258 317° Northwest 203 234 6,300  Level Boston Center
Thu 05:54:00 AM 42.7183 -71.7095 276° West  Level Estimated
Thu 05:54:13 AM 43.0842 -71.4933 305° West 208 239 8,500  Level Boston Center
Thu 05:55:00 AM 42.7653 -71.7863 310° West  Level FlightAware Approximate
Thu 05:55:14 AM 43.1181 -71.5583 306° West 237 273 10,100  Level Boston Center
Thu 05:56:00 AM 42.7102 -71.8524 281° West  Level Estimated
Thu 05:56:13 AM 43.1481 -71.6517 294° West 260 299 10,700  Level Boston Center
Thu 05:57:14 AM 43.1508 -71.7769 272° West 312 359 11,700 1,171 Climbing Boston Center
Thu 05:58:16 AM 43.1556 -71.9022 273° West 335 386 13,100 1,450 Climbing Boston Center
Thu 05:59:14 AM 43.1583 -72.0303 272° West 335 386 14,600 1,311 Climbing Boston Center
Thu 06:00:15 AM 43.1483 -72.1583 264° West 335 386 15,700 1,150 Climbing Boston Center
Thu 06:01:14 AM 43.1214 -72.2808 253° West 341 392 16,900 1,100 Climbing Boston Center
Thu 06:02:15 AM 43.0922 -72.4031 252° West 341 392 17,900 1,050 Climbing Boston Center
Thu 06:03:14 AM 43.0611 -72.5311 252° West 346 398 19,000 1,100 Climbing Boston Center
Thu 06:04:15 AM 43.0317 -72.6389 250° West 340 391 20,100 1,082 Climbing Boston Center
Thu 06:05:16 AM 43.0022 -72.7667 253° West 351 404 21,200 958 Climbing Boston Center
Thu 06:06:14 AM 42.9725 -72.8969 253° West 357 411 22,000 407 Climbing Boston Center
Thu 06:07:14 AM 42.9386 -73.0497 253° West 376 433 22,000 -99 Level Boston Center
Thu 06:08:15 AM 42.9044 -73.1911 252° West 391 450 21,800 -605 Descending Boston Center
Thu 06:09:13 AM 42.8658 -73.3322 250° West 391 450 20,800 -1,190 Descending Boston Center
Thu 06:10:16 AM 42.8314 -73.4733 252° West 396 456 19,400 -1,700 Descending Boston Center
Thu 06:11:13 AM 42.7967 -73.6058 250° West 382 440 17,400 -1,650 Descending Boston Center
Thu 06:12:16 AM 42.7661 -73.7353 252° West 376 433 16,100 -694 Descending Boston Center
Thu 06:13:14 AM 42.7067 -73.8303 230° Southwest 347 399 16,000 -51 Descending Boston Center
Thu 06:14:13 AM 42.6103 -73.8703 197° South 334 384 16,000  Level Boston Center
Thu 06:15:14 AM 42.5117 -73.9075 196° South 346 398 16,000  Level Boston Center
Thu 06:16:14 AM 42.4258 -73.9478 199° South 365 420 16,000 -50 Level Boston Center
Thu 06:17:15 AM 42.3211 -73.9931 198° South 365 420 15,900 -50 Descending Boston Center
Thu 06:18:15 AM 42.2392 -74.0300 198° South 365 420 15,900 51 Level Boston Center
Thu 06:19:13 AM 42.1447 -74.0753 200° South 365 420 16,000 -403 Climbing Boston Center
Thu 06:20:14 AM 42.0525 -74.1150 198° South 360 414 15,100 -1,091 Descending Boston Center
Thu 06:21:14 AM 41.9517 -74.1597 198° South 360 414 13,800 -1,500 Descending Boston Center
Thu 06:22:14 AM 41.8719 -74.1936 198° South 345 397 12,100 -1,700 Descending Boston Center
Thu 06:23:14 AM 41.7775 -74.2328 197° South 332 382 10,400 -1,462 Descending Boston Center
Thu 06:24:13 AM 41.7064 -74.2642 198° South 307 353 9,200 -1,462 Descending Boston Center
Thu 06:25:13 AM 41.6264 -74.2981 198° South 293 337 7,500 -1,082 Descending Boston Center
Thu 06:26:15 AM 41.5614 -74.3267 198° South 282 325 7,000 -250 Descending Boston Center
Thu 06:27:13 AM 41.4836 -74.3603 198° South 282 325 7,000 30 Level Boston Center
Thu 06:29:34 AM 41.3167 -74.4333 198° South 272 313 7,100 32 Climbing New York TRACON
Thu 06:30:22 AM 41.2500 -74.4667 201° Southwest 273 314 7,100  Level New York TRACON
Thu 06:31:22 AM 41.1833 -74.4833 191° South 272 313 7,100  Level New York TRACON
Thu 06:32:16 AM 41.1167 -74.5167 201° Southwest 275 316 7,100 -316 Level New York TRACON
Thu 06:33:16 AM 41.0333 -74.5333 189° South 274 315 6,500 -500 Descending New York TRACON
Thu 06:34:16 AM 40.9667 -74.5333 180° South 271 312 6,100 -200 Descending New York TRACON
Thu 06:35:16 AM 40.8833 -74.5500 189° South 274 315 6,100  Level New York TRACON
Thu 06:36:16 AM 40.8167 -74.5333 169° South 276 318 6,100 -50 Level New York TRACON
Thu 06:37:16 AM 40.7333 -74.5167 171° South 275 316 6,000 -500 Descending New York TRACON
Thu 06:38:16 AM 40.6667 -74.5167 180° South 274 315 5,100 -800 Descending New York TRACON
Thu 06:39:16 AM 40.5833 -74.5000 171° South 270 311 4,400 -500 Descending New York TRACON
Thu 06:40:16 AM 40.5500 -74.4333 123° Southeast 236 272 4,100 -200 Descending New York TRACON
Thu 06:41:16 AM 40.5000 -74.3667 135° Southeast 216 249 4,000 -500 Descending New York TRACON
Thu 06:42:16 AM 40.4833 -74.3167 114° Southeast 215 247 3,100 -450 Descending New York TRACON
Thu 06:43:16 AM 40.5333 -74.2667 37° Northeast 187 215 3,100 -350 Level New York TRACON
Thu 06:44:16 AM 40.5667 -74.2333 37° Northeast 189 217 2,400 -800 Descending New York TRACON
Thu 06:45:16 AM 40.6167 -74.2167 14° North 159 183 1,500 -800 Descending New York TRACON
Thu 06:46:16 AM 40.6500 -74.2000 21° North 132 152 800 -700 Descending New York TRACON

Login

Don't have an account? Register now (free) for customized features, flight alerts, and more!